Terminal Aerodrome Forecast
Issued by NWS Charleston, WV

Current Version | Previous Version | Text Only | Print | Product List | Glossary Off
Versions: 1 2 3 4 5 6 7 8 9 10 11 12 13 14 15 16 17 18 19 20 21 22 23 24 25 26 27

555
FTUS41 KRLX 180212 AAA
TAFBKW
TAF AMD
KBKW 180212Z 1802/1824 28008KT 6SM -SHRA OVC004
      TEMPO 1802/1806 4SM -SHRA BR SCT007 OVC015
     FM181200 28009G16KT P6SM BKN008
     FM181400 28009G16KT P6SM BKN010
     FM182000 29008KT P6SM BKN025=

USA.gov is the U.S. government's official web portal to all federal, state and local government web resources and services.